sensor_id;sensor_type;location;lat;lon;timestamp;P1;durP1;ratioP1;P2;durP2;ratioP2
1779;SDS011;10019;46.670;14.260;2022-11-30T00:02:12;26.20;;;14.63;;
1779;SDS011;10019;46.670;14.260;2022-11-30T00:04:44;30.53;;;14.77;;
1779;SDS011;10019;46.670;14.260;2022-11-30T00:07:16;27.77;;;15.63;;
1779;SDS011;10019;46.670;14.260;2022-11-30T00:09:47;27.60;;;14.43;;
1779;SDS011;10019;46.670;14.260;2022-11-30T00:12:19;27.43;;;14.27;;
1779;SDS011;10019;46.670;14.260;2022-11-30T00:14:51;28.40;;;14.90;;
1779;SDS011;10019;46.670;14.260;2022-11-30T00:17:24;27.33;;;15.63;;
1779;SDS011;10019;46.670;14.260;2022-11-30T00:19:56;30.40;;;15.00;;
1779;SDS011;10019;46.670;14.260;2022-11-30T00:22:27;25.63;;;15.90;;
1779;SDS011;10019;46.670;14.260;2022-11-30T00:24:59;23.23;;;13.20;;
1779;SDS011;10019;46.670;14.260;2022-11-30T00:27:32;27.70;;;15.63;;
1779;SDS011;10019;46.670;14.260;2022-11-30T00:30:05;32.17;;;17.10;;
1779;SDS011;10019;46.670;14.260;2022-11-30T00:32:40;24.83;;;14.43;;
1779;SDS011;10019;46.670;14.260;2022-11-30T00:35:12;34.57;;;16.10;;
1779;SDS011;10019;46.670;14.260;2022-11-30T00:37:43;24.53;;;14.00;;
1779;SDS011;10019;46.670;14.260;2022-11-30T00:40:15;26.30;;;13.13;;
1779;SDS011;10019;46.670;14.260;2022-11-30T00:42:47;30.40;;;14.87;;
1779;SDS011;10019;46.670;14.260;2022-11-30T00:45:19;29.37;;;13.57;;
1779;SDS011;10019;46.670;14.260;2022-11-30T00:47:52;29.83;;;14.63;;
1779;SDS011;10019;46.670;14.260;2022-11-30T00:50:23;22.93;;;13.50;;
1779;SDS011;10019;46.670;14.260;2022-11-30T00:52:55;27.10;;;14.87;;
1779;SDS011;10019;46.670;14.260;2022-11-30T00:55:27;23.80;;;13.80;;
1779;SDS011;10019;46.670;14.260;2022-11-30T00:58:00;25.90;;;15.07;;
1779;SDS011;10019;46.670;14.260;2022-11-30T01:00:32;30.23;;;14.87;;
1779;SDS011;10019;46.670;14.260;2022-11-30T01:03:05;29.60;;;15.03;;
1779;SDS011;10019;46.670;14.260;2022-11-30T01:05:37;23.80;;;14.20;;
1779;SDS011;10019;46.670;14.260;2022-11-30T01:08:09;27.17;;;15.30;;
1779;SDS011;10019;46.670;14.260;2022-11-30T01:10:42;30.90;;;15.13;;
1779;SDS011;10019;46.670;14.260;2022-11-30T01:13:14;30.80;;;15.93;;
1779;SDS011;10019;46.670;14.260;2022-11-30T01:15:45;23.80;;;14.40;;
1779;SDS011;10019;46.670;14.260;2022-11-30T01:18:19;24.40;;;15.17;;
1779;SDS011;10019;46.670;14.260;2022-11-30T01:20:50;26.73;;;14.47;;
1779;SDS011;10019;46.670;14.260;2022-11-30T01:23:22;29.97;;;15.60;;
1779;SDS011;10019;46.670;14.260;2022-11-30T01:25:54;27.13;;;15.53;;
1779;SDS011;10019;46.670;14.260;2022-11-30T01:28:25;23.93;;;14.27;;
1779;SDS011;10019;46.670;14.260;2022-11-30T01:30:57;27.20;;;14.40;;
1779;SDS011;10019;46.670;14.260;2022-11-30T01:33:31;29.73;;;15.93;;
1779;SDS011;10019;46.670;14.260;2022-11-30T01:36:03;30.07;;;16.23;;
1779;SDS011;10019;46.670;14.260;2022-11-30T01:38:37;31.77;;;15.87;;
1779;SDS011;10019;46.670;14.260;2022-11-30T01:41:11;29.43;;;14.83;;
1779;SDS011;10019;46.670;14.260;2022-11-30T01:43:44;27.17;;;14.70;;
1779;SDS011;10019;46.670;14.260;2022-11-30T01:46:21;25.10;;;14.13;;
1779;SDS011;10019;46.670;14.260;2022-11-30T01:49:01;21.00;;;14.03;;
1779;SDS011;10019;46.670;14.260;2022-11-30T01:51:38;26.23;;;13.60;;
1779;SDS011;10019;46.670;14.260;2022-11-30T01:54:12;32.20;;;14.87;;
1779;SDS011;10019;46.670;14.260;2022-11-30T01:56:47;29.10;;;14.73;;
1779;SDS011;10019;46.670;14.260;2022-11-30T01:59:22;26.63;;;14.00;;
1779;SDS011;10019;46.670;14.260;2022-11-30T02:01:54;24.40;;;13.33;;
1779;SDS011;10019;46.670;14.260;2022-11-30T02:04:28;28.60;;;13.60;;
1779;SDS011;10019;46.670;14.260;2022-11-30T02:07:01;26.87;;;13.87;;
1779;SDS011;10019;46.670;14.260;2022-11-30T02:09:36;28.80;;;15.00;;
1779;SDS011;10019;46.670;14.260;2022-11-30T02:12:14;27.00;;;13.77;;
1779;SDS011;10019;46.670;14.260;2022-11-30T02:14:53;24.93;;;13.00;;
1779;SDS011;10019;46.670;14.260;2022-11-30T02:17:31;28.20;;;14.83;;
1779;SDS011;10019;46.670;14.260;2022-11-30T02:20:28;28.73;;;14.47;;
1779;SDS011;10019;46.670;14.260;2022-11-30T02:23:08;25.20;;;14.87;;
1779;SDS011;10019;46.670;14.260;2022-11-30T02:25:53;23.70;;;13.93;;
1779;SDS011;10019;46.670;14.260;2022-11-30T02:31:30;24.20;;;12.73;;
1779;SDS011;10019;46.670;14.260;2022-11-30T02:34:06;27.53;;;12.77;;
1779;SDS011;10019;46.670;14.260;2022-11-30T02:36:40;23.93;;;13.50;;
1779;SDS011;10019;46.670;14.260;2022-11-30T02:39:13;37.33;;;14.97;;
1779;SDS011;10019;46.670;14.260;2022-11-30T02:41:46;22.37;;;11.77;;
1779;SDS011;10019;46.670;14.260;2022-11-30T02:44:19;24.73;;;14.03;;
1779;SDS011;10019;46.670;14.260;2022-11-30T02:49:47;24.30;;;13.23;;
1779;SDS011;10019;46.670;14.260;2022-11-30T02:52:22;25.87;;;14.30;;
1779;SDS011;10019;46.670;14.260;2022-11-30T02:54:59;27.20;;;15.47;;
1779;SDS011;10019;46.670;14.260;2022-11-30T02:57:31;29.60;;;15.00;;
1779;SDS011;10019;46.670;14.260;2022-11-30T03:00:05;22.13;;;14.20;;
1779;SDS011;10019;46.670;14.260;2022-11-30T03:02:39;23.77;;;13.00;;
1779;SDS011;10019;46.670;14.260;2022-11-30T03:05:11;24.30;;;13.20;;
1779;SDS011;10019;46.670;14.260;2022-11-30T03:07:43;25.23;;;14.13;;
1779;SDS011;10019;46.670;14.260;2022-11-30T03:10:14;20.17;;;13.37;;
1779;SDS011;10019;46.670;14.260;2022-11-30T03:12:46;28.30;;;14.90;;
1779;SDS011;10019;46.670;14.260;2022-11-30T03:15:19;22.60;;;13.10;;
1779;SDS011;10019;46.670;14.260;2022-11-30T03:17:51;26.90;;;15.40;;
1779;SDS011;10019;46.670;14.260;2022-11-30T03:20:23;24.23;;;13.97;;
1779;SDS011;10019;46.670;14.260;2022-11-30T03:22:57;22.00;;;13.07;;
1779;SDS011;10019;46.670;14.260;2022-11-30T03:25:29;28.57;;;15.57;;
1779;SDS011;10019;46.670;14.260;2022-11-30T03:28:01;32.00;;;15.73;;
1779;SDS011;10019;46.670;14.260;2022-11-30T03:30:34;29.87;;;14.50;;
1779;SDS011;10019;46.670;14.260;2022-11-30T03:33:06;25.40;;;14.60;;
1779;SDS011;10019;46.670;14.260;2022-11-30T03:35:38;26.57;;;13.37;;
1779;SDS011;10019;46.670;14.260;2022-11-30T03:38:10;29.40;;;14.00;;
1779;SDS011;10019;46.670;14.260;2022-11-30T03:40:41;27.20;;;14.00;;
1779;SDS011;10019;46.670;14.260;2022-11-30T03:43:13;20.90;;;12.40;;
1779;SDS011;10019;46.670;14.260;2022-11-30T03:45:46;27.73;;;15.30;;
1779;SDS011;10019;46.670;14.260;2022-11-30T03:48:18;29.53;;;15.70;;
1779;SDS011;10019;46.670;14.260;2022-11-30T03:50:50;21.83;;;13.10;;
1779;SDS011;10019;46.670;14.260;2022-11-30T03:53:22;23.73;;;14.30;;
1779;SDS011;10019;46.670;14.260;2022-11-30T03:55:55;25.80;;;14.60;;
1779;SDS011;10019;46.670;14.260;2022-11-30T03:58:28;25.57;;;14.97;;
1779;SDS011;10019;46.670;14.260;2022-11-30T04:01:02;25.97;;;15.03;;
1779;SDS011;10019;46.670;14.260;2022-11-30T04:03:35;27.90;;;13.40;;
1779;SDS011;10019;46.670;14.260;2022-11-30T04:06:08;25.27;;;14.40;;
1779;SDS011;10019;46.670;14.260;2022-11-30T04:08:40;23.30;;;14.30;;
1779;SDS011;10019;46.670;14.260;2022-11-30T04:11:12;26.47;;;14.77;;
1779;SDS011;10019;46.670;14.260;2022-11-30T04:13:44;25.87;;;14.00;;
1779;SDS011;10019;46.670;14.260;2022-11-30T04:16:17;30.83;;;15.70;;
1779;SDS011;10019;46.670;14.260;2022-11-30T04:18:49;24.50;;;13.10;;
1779;SDS011;10019;46.670;14.260;2022-11-30T04:21:20;26.87;;;15.87;;
1779;SDS011;10019;46.670;14.260;2022-11-30T04:23:52;23.40;;;14.27;;
1779;SDS011;10019;46.670;14.260;2022-11-30T04:26:24;24.00;;;14.53;;
1779;SDS011;10019;46.670;14.260;2022-11-30T04:28:55;25.80;;;15.53;;
1779;SDS011;10019;46.670;14.260;2022-11-30T04:31:28;23.87;;;14.73;;
1779;SDS011;10019;46.670;14.260;2022-11-30T04:34:00;26.50;;;15.47;;
1779;SDS011;10019;46.670;14.260;2022-11-30T04:36:32;29.57;;;14.90;;
1779;SDS011;10019;46.670;14.260;2022-11-30T04:39:03;26.00;;;14.83;;
1779;SDS011;10019;46.670;14.260;2022-11-30T04:41:35;32.47;;;14.90;;
1779;SDS011;10019;46.670;14.260;2022-11-30T04:44:07;27.10;;;13.07;;
1779;SDS011;10019;46.670;14.260;2022-11-30T04:46:40;29.70;;;15.20;;
1779;SDS011;10019;46.670;14.260;2022-11-30T04:49:12;29.40;;;15.33;;
1779;SDS011;10019;46.670;14.260;2022-11-30T04:51:43;28.90;;;14.63;;
1779;SDS011;10019;46.670;14.260;2022-11-30T04:54:15;24.00;;;13.60;;
1779;SDS011;10019;46.670;14.260;2022-11-30T04:56:47;27.27;;;13.73;;
1779;SDS011;10019;46.670;14.260;2022-11-30T04:59:18;25.03;;;14.97;;
1779;SDS011;10019;46.670;14.260;2022-11-30T05:01:52;29.00;;;14.50;;
1779;SDS011;10019;46.670;14.260;2022-11-30T05:04:23;21.13;;;13.00;;
1779;SDS011;10019;46.670;14.260;2022-11-30T05:06:55;25.27;;;14.50;;
1779;SDS011;10019;46.670;14.260;2022-11-30T05:09:27;32.07;;;14.83;;
1779;SDS011;10019;46.670;14.260;2022-11-30T05:11:58;30.50;;;13.77;;
1779;SDS011;10019;46.670;14.260;2022-11-30T05:14:30;24.87;;;15.13;;
1779;SDS011;10019;46.670;14.260;2022-11-30T05:17:03;26.10;;;14.87;;
1779;SDS011;10019;46.670;14.260;2022-11-30T05:19:35;30.57;;;16.00;;
1779;SDS011;10019;46.670;14.260;2022-11-30T05:22:06;22.50;;;13.10;;
1779;SDS011;10019;46.670;14.260;2022-11-30T05:24:38;23.23;;;14.80;;
1779;SDS011;10019;46.670;14.260;2022-11-30T05:27:10;26.27;;;15.10;;
1779;SDS011;10019;46.670;14.260;2022-11-30T05:29:41;33.03;;;14.70;;
1779;SDS011;10019;46.670;14.260;2022-11-30T05:32:15;27.80;;;15.23;;
1779;SDS011;10019;46.670;14.260;2022-11-30T05:34:46;26.47;;;15.43;;
1779;SDS011;10019;46.670;14.260;2022-11-30T05:37:18;29.27;;;14.30;;
1779;SDS011;10019;46.670;14.260;2022-11-30T05:39:50;32.50;;;16.57;;
1779;SDS011;10019;46.670;14.260;2022-11-30T05:42:21;29.77;;;14.73;;
1779;SDS011;10019;46.670;14.260;2022-11-30T05:44:53;29.83;;;15.37;;
1779;SDS011;10019;46.670;14.260;2022-11-30T05:47:26;29.23;;;15.10;;
1779;SDS011;10019;46.670;14.260;2022-11-30T05:49:58;30.73;;;15.77;;
1779;SDS011;10019;46.670;14.260;2022-11-30T05:52:30;29.63;;;14.50;;
1779;SDS011;10019;46.670;14.260;2022-11-30T05:55:01;24.23;;;13.80;;
1779;SDS011;10019;46.670;14.260;2022-11-30T05:57:34;24.90;;;13.00;;
1779;SDS011;10019;46.670;14.260;2022-11-30T06:00:07;27.97;;;13.97;;
1779;SDS011;10019;46.670;14.260;2022-11-30T06:02:41;30.57;;;14.60;;
1779;SDS011;10019;46.670;14.260;2022-11-30T06:05:12;26.13;;;13.83;;
1779;SDS011;10019;46.670;14.260;2022-11-30T06:07:44;28.20;;;14.63;;
1779;SDS011;10019;46.670;14.260;2022-11-30T06:10:16;32.40;;;15.23;;
1779;SDS011;10019;46.670;14.260;2022-11-30T06:12:49;26.20;;;15.60;;
1779;SDS011;10019;46.670;14.260;2022-11-30T06:15:21;30.47;;;14.30;;
1779;SDS011;10019;46.670;14.260;2022-11-30T06:17:55;29.97;;;14.40;;
1779;SDS011;10019;46.670;14.260;2022-11-30T06:20:26;30.07;;;16.00;;
1779;SDS011;10019;46.670;14.260;2022-11-30T06:22:58;26.30;;;14.37;;
1779;SDS011;10019;46.670;14.260;2022-11-30T06:25:30;28.27;;;14.63;;
1779;SDS011;10019;46.670;14.260;2022-11-30T06:28:02;32.70;;;15.50;;
1779;SDS011;10019;46.670;14.260;2022-11-30T06:30:34;30.60;;;15.47;;
1779;SDS011;10019;46.670;14.260;2022-11-30T06:33:07;30.73;;;16.37;;
1779;SDS011;10019;46.670;14.260;2022-11-30T06:35:43;36.33;;;15.33;;
1779;SDS011;10019;46.670;14.260;2022-11-30T06:38:15;26.00;;;15.40;;
1779;SDS011;10019;46.670;14.260;2022-11-30T06:40:47;29.87;;;15.00;;
1779;SDS011;10019;46.670;14.260;2022-11-30T06:43:18;26.93;;;14.63;;
1779;SDS011;10019;46.670;14.260;2022-11-30T06:45:50;25.20;;;14.20;;
1779;SDS011;10019;46.670;14.260;2022-11-30T06:48:23;30.67;;;16.10;;
1779;SDS011;10019;46.670;14.260;2022-11-30T06:50:55;25.47;;;14.97;;
1779;SDS011;10019;46.670;14.260;2022-11-30T06:53:27;26.83;;;14.67;;
1779;SDS011;10019;46.670;14.260;2022-11-30T06:56:02;38.20;;;15.27;;
1779;SDS011;10019;46.670;14.260;2022-11-30T06:58:34;26.17;;;14.50;;
1779;SDS011;10019;46.670;14.260;2022-11-30T07:01:06;27.07;;;14.80;;
1779;SDS011;10019;46.670;14.260;2022-11-30T07:03:41;27.70;;;15.23;;
1779;SDS011;10019;46.670;14.260;2022-11-30T07:06:13;26.73;;;15.20;;
1779;SDS011;10019;46.670;14.260;2022-11-30T07:08:45;28.97;;;15.10;;
1779;SDS011;10019;46.670;14.260;2022-11-30T07:11:16;30.23;;;15.97;;
1779;SDS011;10019;46.670;14.260;2022-11-30T07:13:48;29.50;;;16.57;;
1779;SDS011;10019;46.670;14.260;2022-11-30T07:16:20;25.27;;;13.90;;
1779;SDS011;10019;46.670;14.260;2022-11-30T07:18:53;28.90;;;17.37;;
1779;SDS011;10019;46.670;14.260;2022-11-30T07:21:24;28.90;;;15.37;;
1779;SDS011;10019;46.670;14.260;2022-11-30T07:23:56;24.83;;;14.27;;
1779;SDS011;10019;46.670;14.260;2022-11-30T07:26:45;29.73;;;15.50;;
1779;SDS011;10019;46.670;14.260;2022-11-30T07:29:17;26.83;;;15.27;;
1779;SDS011;10019;46.670;14.260;2022-11-30T07:31:49;23.93;;;13.97;;
1779;SDS011;10019;46.670;14.260;2022-11-30T07:34:23;29.70;;;15.67;;
1779;SDS011;10019;46.670;14.260;2022-11-30T07:36:54;22.37;;;14.40;;
1779;SDS011;10019;46.670;14.260;2022-11-30T07:39:26;25.87;;;14.60;;
1779;SDS011;10019;46.670;14.260;2022-11-30T07:41:58;26.83;;;15.20;;
1779;SDS011;10019;46.670;14.260;2022-11-30T07:44:29;28.90;;;14.93;;
1779;SDS011;10019;46.670;14.260;2022-11-30T07:47:01;31.00;;;17.57;;
1779;SDS011;10019;46.670;14.260;2022-11-30T07:49:34;30.00;;;15.23;;
1779;SDS011;10019;46.670;14.260;2022-11-30T07:52:08;27.50;;;14.17;;
1779;SDS011;10019;46.670;14.260;2022-11-30T07:54:39;26.73;;;14.57;;
1779;SDS011;10019;46.670;14.260;2022-11-30T07:57:11;27.17;;;15.43;;
1779;SDS011;10019;46.670;14.260;2022-11-30T07:59:43;27.20;;;15.80;;
1779;SDS011;10019;46.670;14.260;2022-11-30T08:02:14;32.53;;;15.93;;
1779;SDS011;10019;46.670;14.260;2022-11-30T08:04:47;32.80;;;16.30;;
1779;SDS011;10019;46.670;14.260;2022-11-30T08:07:19;31.60;;;16.47;;
1779;SDS011;10019;46.670;14.260;2022-11-30T08:09:51;30.60;;;16.57;;
1779;SDS011;10019;46.670;14.260;2022-11-30T08:12:23;35.17;;;14.40;;
1779;SDS011;10019;46.670;14.260;2022-11-30T08:14:54;28.53;;;16.60;;
1779;SDS011;10019;46.670;14.260;2022-11-30T08:17:26;29.33;;;15.63;;
1779;SDS011;10019;46.670;14.260;2022-11-30T08:19:59;32.57;;;16.10;;
1779;SDS011;10019;46.670;14.260;2022-11-30T08:22:31;28.63;;;15.57;;
1779;SDS011;10019;46.670;14.260;2022-11-30T08:25:03;37.33;;;18.30;;
1779;SDS011;10019;46.670;14.260;2022-11-30T08:27:35;24.10;;;14.80;;
1779;SDS011;10019;46.670;14.260;2022-11-30T08:30:07;32.53;;;15.93;;
1779;SDS011;10019;46.670;14.260;2022-11-30T08:32:39;28.87;;;15.67;;
1779;SDS011;10019;46.670;14.260;2022-11-30T08:35:13;27.83;;;15.63;;
1779;SDS011;10019;46.670;14.260;2022-11-30T08:37:44;27.27;;;14.47;;
1779;SDS011;10019;46.670;14.260;2022-11-30T08:40:16;25.63;;;16.47;;
1779;SDS011;10019;46.670;14.260;2022-11-30T08:42:48;28.23;;;17.17;;
1779;SDS011;10019;46.670;14.260;2022-11-30T08:45:20;28.83;;;17.87;;
1779;SDS011;10019;46.670;14.260;2022-11-30T08:47:53;33.90;;;16.77;;
1779;SDS011;10019;46.670;14.260;2022-11-30T08:50:26;34.03;;;16.43;;
1779;SDS011;10019;46.670;14.260;2022-11-30T08:52:58;32.97;;;17.10;;
1779;SDS011;10019;46.670;14.260;2022-11-30T08:55:29;28.40;;;17.03;;
1779;SDS011;10019;46.670;14.260;2022-11-30T08:58:01;29.40;;;16.50;;
1779;SDS011;10019;46.670;14.260;2022-11-30T09:00:33;29.93;;;17.90;;
1779;SDS011;10019;46.670;14.260;2022-11-30T09:03:05;29.83;;;15.93;;
1779;SDS011;10019;46.670;14.260;2022-11-30T09:05:38;31.37;;;18.17;;
1779;SDS011;10019;46.670;14.260;2022-11-30T09:08:13;33.93;;;18.00;;
1779;SDS011;10019;46.670;14.260;2022-11-30T09:10:47;37.30;;;22.93;;
1779;SDS011;10019;46.670;14.260;2022-11-30T09:13:21;50.93;;;30.37;;
1779;SDS011;10019;46.670;14.260;2022-11-30T09:15:54;50.00;;;28.10;;
1779;SDS011;10019;46.670;14.260;2022-11-30T09:18:38;33.47;;;19.53;;
1779;SDS011;10019;46.670;14.260;2022-11-30T09:21:17;27.93;;;17.43;;
1779;SDS011;10019;46.670;14.260;2022-11-30T09:23:52;34.80;;;17.57;;
1779;SDS011;10019;46.670;14.260;2022-11-30T09:26:32;37.07;;;18.10;;
1779;SDS011;10019;46.670;14.260;2022-11-30T09:29:07;34.27;;;16.63;;
1779;SDS011;10019;46.670;14.260;2022-11-30T09:31:40;33.97;;;18.00;;
1779;SDS011;10019;46.670;14.260;2022-11-30T09:34:18;25.13;;;14.13;;
1779;SDS011;10019;46.670;14.260;2022-11-30T09:36:51;28.23;;;16.90;;
1779;SDS011;10019;46.670;14.260;2022-11-30T09:39:23;32.07;;;15.17;;
1779;SDS011;10019;46.670;14.260;2022-11-30T09:45:15;25.27;;;15.07;;
1779;SDS011;10019;46.670;14.260;2022-11-30T09:47:54;35.27;;;16.83;;
1779;SDS011;10019;46.670;14.260;2022-11-30T09:50:36;27.83;;;15.87;;
1779;SDS011;10019;46.670;14.260;2022-11-30T09:53:13;30.57;;;17.10;;
1779;SDS011;10019;46.670;14.260;2022-11-30T09:55:48;27.30;;;15.90;;
1779;SDS011;10019;46.670;14.260;2022-11-30T09:58:23;33.63;;;17.50;;
1779;SDS011;10019;46.670;14.260;2022-11-30T10:00:58;33.40;;;19.30;;
1779;SDS011;10019;46.670;14.260;2022-11-30T10:03:31;37.07;;;18.50;;
1779;SDS011;10019;46.670;14.260;2022-11-30T10:06:04;31.97;;;17.60;;
1779;SDS011;10019;46.670;14.260;2022-11-30T10:08:41;36.50;;;18.43;;
1779;SDS011;10019;46.670;14.260;2022-11-30T10:11:21;30.93;;;17.70;;
1779;SDS011;10019;46.670;14.260;2022-11-30T10:14:00;39.67;;;17.90;;
1779;SDS011;10019;46.670;14.260;2022-11-30T10:16:41;33.77;;;16.67;;
1779;SDS011;10019;46.670;14.260;2022-11-30T10:19:22;31.23;;;16.67;;
1779;SDS011;10019;46.670;14.260;2022-11-30T10:22:00;33.47;;;17.57;;
1779;SDS011;10019;46.670;14.260;2022-11-30T10:24:44;31.23;;;17.20;;
1779;SDS011;10019;46.670;14.260;2022-11-30T10:27:30;33.10;;;16.90;;
1779;SDS011;10019;46.670;14.260;2022-11-30T10:30:11;31.87;;;15.03;;
1779;SDS011;10019;46.670;14.260;2022-11-30T10:32:44;34.57;;;16.30;;
1779;SDS011;10019;46.670;14.260;2022-11-30T10:35:21;28.30;;;15.37;;
1779;SDS011;10019;46.670;14.260;2022-11-30T10:37:57;28.80;;;16.57;;
1779;SDS011;10019;46.670;14.260;2022-11-30T10:40:33;29.07;;;16.07;;
1779;SDS011;10019;46.670;14.260;2022-11-30T10:43:12;30.37;;;15.87;;
1779;SDS011;10019;46.670;14.260;2022-11-30T10:45:49;27.60;;;16.60;;
1779;SDS011;10019;46.670;14.260;2022-11-30T10:48:23;28.47;;;17.00;;
1779;SDS011;10019;46.670;14.260;2022-11-30T10:50:57;32.70;;;17.33;;
1779;SDS011;10019;46.670;14.260;2022-11-30T10:53:30;32.60;;;15.80;;
1779;SDS011;10019;46.670;14.260;2022-11-30T10:56:05;37.87;;;17.63;;
1779;SDS011;10019;46.670;14.260;2022-11-30T10:58:39;32.03;;;16.70;;
1779;SDS011;10019;46.670;14.260;2022-11-30T11:01:27;29.33;;;15.50;;
1779;SDS011;10019;46.670;14.260;2022-11-30T11:04:12;25.27;;;14.63;;
1779;SDS011;10019;46.670;14.260;2022-11-30T11:06:46;24.27;;;15.30;;
1779;SDS011;10019;46.670;14.260;2022-11-30T11:09:33;29.97;;;16.67;;
1779;SDS011;10019;46.670;14.260;2022-11-30T11:12:13;28.87;;;14.40;;
1779;SDS011;10019;46.670;14.260;2022-11-30T11:14:47;26.50;;;14.40;;
1779;SDS011;10019;46.670;14.260;2022-11-30T11:17:22;31.90;;;14.93;;
1779;SDS011;10019;46.670;14.260;2022-11-30T11:19:55;31.37;;;14.30;;
1779;SDS011;10019;46.670;14.260;2022-11-30T11:22:28;31.70;;;18.17;;
1779;SDS011;10019;46.670;14.260;2022-11-30T11:25:07;32.47;;;16.93;;
1779;SDS011;10019;46.670;14.260;2022-11-30T11:27:42;24.40;;;15.23;;
1779;SDS011;10019;46.670;14.260;2022-11-30T11:30:15;22.80;;;13.80;;
1779;SDS011;10019;46.670;14.260;2022-11-30T11:32:56;26.10;;;15.60;;
1779;SDS011;10019;46.670;14.260;2022-11-30T11:35:33;26.93;;;15.27;;
1779;SDS011;10019;46.670;14.260;2022-11-30T11:38:16;32.03;;;16.20;;
1779;SDS011;10019;46.670;14.260;2022-11-30T11:40:56;34.13;;;16.27;;
1779;SDS011;10019;46.670;14.260;2022-11-30T11:43:32;28.87;;;15.23;;
1779;SDS011;10019;46.670;14.260;2022-11-30T11:46:24;27.97;;;15.47;;
1779;SDS011;10019;46.670;14.260;2022-11-30T11:48:57;29.70;;;15.87;;
1779;SDS011;10019;46.670;14.260;2022-11-30T11:51:30;30.17;;;16.27;;
1779;SDS011;10019;46.670;14.260;2022-11-30T11:54:05;26.67;;;14.93;;
1779;SDS011;10019;46.670;14.260;2022-11-30T11:56:42;30.03;;;17.17;;
1779;SDS011;10019;46.670;14.260;2022-11-30T11:59:18;28.53;;;15.40;;
1779;SDS011;10019;46.670;14.260;2022-11-30T12:01:54;30.67;;;15.67;;
1779;SDS011;10019;46.670;14.260;2022-11-30T12:04:36;22.93;;;14.87;;
1779;SDS011;10019;46.670;14.260;2022-11-30T12:07:16;33.30;;;16.37;;
1779;SDS011;10019;46.670;14.260;2022-11-30T12:09:54;28.73;;;16.60;;
1779;SDS011;10019;46.670;14.260;2022-11-30T12:12:30;26.33;;;15.00;;
1779;SDS011;10019;46.670;14.260;2022-11-30T12:15:04;26.93;;;13.97;;
1779;SDS011;10019;46.670;14.260;2022-11-30T12:17:45;22.07;;;12.97;;
1779;SDS011;10019;46.670;14.260;2022-11-30T12:20:22;24.30;;;13.40;;
1779;SDS011;10019;46.670;14.260;2022-11-30T12:23:04;23.17;;;13.20;;
1779;SDS011;10019;46.670;14.260;2022-11-30T12:25:44;23.77;;;13.40;;
1779;SDS011;10019;46.670;14.260;2022-11-30T12:28:22;31.00;;;13.87;;
1779;SDS011;10019;46.670;14.260;2022-11-30T12:31:03;21.57;;;13.13;;
1779;SDS011;10019;46.670;14.260;2022-11-30T12:33:44;25.43;;;12.97;;
1779;SDS011;10019;46.670;14.260;2022-11-30T12:36:32;22.43;;;13.93;;
1779;SDS011;10019;46.670;14.260;2022-11-30T12:39:13;23.13;;;12.77;;
1779;SDS011;10019;46.670;14.260;2022-11-30T12:41:50;28.03;;;13.97;;
1779;SDS011;10019;46.670;14.260;2022-11-30T12:44:30;24.20;;;12.97;;
1779;SDS011;10019;46.670;14.260;2022-11-30T12:47:14;26.63;;;14.27;;
1779;SDS011;10019;46.670;14.260;2022-11-30T12:49:57;25.57;;;14.30;;
1779;SDS011;10019;46.670;14.260;2022-11-30T12:52:37;26.13;;;13.73;;
1779;SDS011;10019;46.670;14.260;2022-11-30T12:55:16;26.00;;;15.00;;
1779;SDS011;10019;46.670;14.260;2022-11-30T12:57:54;28.63;;;14.47;;
1779;SDS011;10019;46.670;14.260;2022-11-30T13:00:32;30.70;;;15.10;;
1779;SDS011;10019;46.670;14.260;2022-11-30T13:03:17;27.00;;;14.87;;
1779;SDS011;10019;46.670;14.260;2022-11-30T13:05:59;26.57;;;14.07;;
1779;SDS011;10019;46.670;14.260;2022-11-30T13:08:33;28.20;;;14.77;;
1779;SDS011;10019;46.670;14.260;2022-11-30T13:11:11;26.97;;;13.40;;
1779;SDS011;10019;46.670;14.260;2022-11-30T13:13:47;26.43;;;15.10;;
1779;SDS011;10019;46.670;14.260;2022-11-30T13:16:22;24.00;;;15.03;;
1779;SDS011;10019;46.670;14.260;2022-11-30T13:18:57;23.87;;;13.83;;
1779;SDS011;10019;46.670;14.260;2022-11-30T13:21:33;24.00;;;14.90;;
1779;SDS011;10019;46.670;14.260;2022-11-30T13:24:09;26.10;;;15.53;;
1779;SDS011;10019;46.670;14.260;2022-11-30T13:26:44;25.70;;;15.03;;
1779;SDS011;10019;46.670;14.260;2022-11-30T13:29:26;29.80;;;15.30;;
1779;SDS011;10019;46.670;14.260;2022-11-30T13:32:30;28.30;;;14.07;;
1779;SDS011;10019;46.670;14.260;2022-11-30T13:38:16;24.37;;;14.17;;
1779;SDS011;10019;46.670;14.260;2022-11-30T13:40:53;26.23;;;14.47;;
1779;SDS011;10019;46.670;14.260;2022-11-30T13:43:26;22.17;;;13.90;;
1779;SDS011;10019;46.670;14.260;2022-11-30T13:46:03;27.40;;;14.43;;
1779;SDS011;10019;46.670;14.260;2022-11-30T13:48:36;28.67;;;16.90;;
1779;SDS011;10019;46.670;14.260;2022-11-30T13:51:11;25.27;;;13.97;;
1779;SDS011;10019;46.670;14.260;2022-11-30T13:53:43;24.20;;;15.23;;
1779;SDS011;10019;46.670;14.260;2022-11-30T13:56:29;28.93;;;15.67;;
1779;SDS011;10019;46.670;14.260;2022-11-30T14:05:35;22.53;;;13.80;;
1779;SDS011;10019;46.670;14.260;2022-11-30T14:08:11;27.80;;;14.40;;
1779;SDS011;10019;46.670;14.260;2022-11-30T14:10:47;29.13;;;14.00;;
1779;SDS011;10019;46.670;14.260;2022-11-30T14:13:26;31.20;;;16.03;;
1779;SDS011;10019;46.670;14.260;2022-11-30T14:16:00;26.80;;;14.00;;
1779;SDS011;10019;46.670;14.260;2022-11-30T14:18:37;33.17;;;15.13;;
1779;SDS011;10019;46.670;14.260;2022-11-30T14:21:15;21.27;;;13.30;;
1779;SDS011;10019;46.670;14.260;2022-11-30T14:23:56;23.80;;;13.80;;
1779;SDS011;10019;46.670;14.260;2022-11-30T14:26:31;26.63;;;15.07;;
1779;SDS011;10019;46.670;14.260;2022-11-30T14:29:11;29.93;;;15.27;;
1779;SDS011;10019;46.670;14.260;2022-11-30T14:31:49;26.97;;;14.80;;
1779;SDS011;10019;46.670;14.260;2022-11-30T14:34:23;27.90;;;15.90;;
1779;SDS011;10019;46.670;14.260;2022-11-30T14:36:57;32.37;;;14.73;;
1779;SDS011;10019;46.670;14.260;2022-11-30T14:39:32;26.27;;;15.50;;
1779;SDS011;10019;46.670;14.260;2022-11-30T14:42:05;27.03;;;15.30;;
1779;SDS011;10019;46.670;14.260;2022-11-30T14:44:46;27.13;;;15.17;;
1779;SDS011;10019;46.670;14.260;2022-11-30T14:47:20;24.53;;;15.40;;
1779;SDS011;10019;46.670;14.260;2022-11-30T14:49:54;27.27;;;15.63;;
1779;SDS011;10019;46.670;14.260;2022-11-30T14:52:34;32.40;;;16.20;;
1779;SDS011;10019;46.670;14.260;2022-11-30T14:55:16;33.37;;;15.67;;
1779;SDS011;10019;46.670;14.260;2022-11-30T14:57:56;27.93;;;15.93;;
1779;SDS011;10019;46.670;14.260;2022-11-30T15:00:34;32.00;;;16.37;;
1779;SDS011;10019;46.670;14.260;2022-11-30T15:03:14;28.97;;;15.00;;
1779;SDS011;10019;46.670;14.260;2022-11-30T15:05:50;28.03;;;15.10;;
1779;SDS011;10019;46.670;14.260;2022-11-30T15:08:23;29.80;;;16.63;;
1779;SDS011;10019;46.670;14.260;2022-11-30T15:10:58;22.97;;;15.10;;
1779;SDS011;10019;46.670;14.260;2022-11-30T15:13:36;31.93;;;16.50;;
1779;SDS011;10019;46.670;14.260;2022-11-30T15:16:10;25.37;;;15.30;;
1779;SDS011;10019;46.670;14.260;2022-11-30T15:18:48;24.00;;;13.83;;
1779;SDS011;10019;46.670;14.260;2022-11-30T15:21:20;27.13;;;14.03;;
1779;SDS011;10019;46.670;14.260;2022-11-30T15:23:55;28.83;;;15.50;;